sensor_id;sensor_type;location;lat;lon;timestamp;P1;durP1;ratioP1;P2;durP2;ratioP2
45842;SDS011;31563;51.744;8.252;2024-02-23T00:02:26;0.60;;;0.20;;
45842;SDS011;31563;51.744;8.252;2024-02-23T00:04:55;0.70;;;0.20;;
45842;SDS011;31563;51.744;8.252;2024-02-23T00:07:23;1.20;;;0.40;;
45842;SDS011;31563;51.744;8.252;2024-02-23T00:09:51;1.60;;;0.30;;
45842;SDS011;31563;51.744;8.252;2024-02-23T00:12:20;0.52;;;0.20;;
45842;SDS011;31563;51.744;8.252;2024-02-23T00:14:48;1.40;;;0.20;;
45842;SDS011;31563;51.744;8.252;2024-02-23T00:17:17;4.20;;;0.30;;
45842;SDS011;31563;51.744;8.252;2024-02-23T00:19:45;1.17;;;0.30;;
45842;SDS011;31563;51.744;8.252;2024-02-23T00:22:13;3.30;;;0.30;;
45842;SDS011;31563;51.744;8.252;2024-02-23T00:24:42;3.58;;;0.40;;
45842;SDS011;31563;51.744;8.252;2024-02-23T00:27:10;1.77;;;0.30;;
45842;SDS011;31563;51.744;8.252;2024-02-23T00:29:39;1.75;;;0.30;;
45842;SDS011;31563;51.744;8.252;2024-02-23T00:32:08;0.38;;;0.13;;
45842;SDS011;31563;51.744;8.252;2024-02-23T00:34:36;1.50;;;0.20;;
45842;SDS011;31563;51.744;8.252;2024-02-23T00:37:04;0.50;;;0.13;;
45842;SDS011;31563;51.744;8.252;2024-02-23T00:39:34;0.75;;;0.20;;
45842;SDS011;31563;51.744;8.252;2024-02-23T00:42:03;1.13;;;0.20;;
45842;SDS011;31563;51.744;8.252;2024-02-23T00:44:32;1.10;;;0.40;;
45842;SDS011;31563;51.744;8.252;2024-02-23T00:47:01;0.82;;;0.20;;
45842;SDS011;31563;51.744;8.252;2024-02-23T00:49:30;0.85;;;0.17;;
45842;SDS011;31563;51.744;8.252;2024-02-23T00:51:58;0.20;;;0.10;;
45842;SDS011;31563;51.744;8.252;2024-02-23T00:54:26;0.68;;;0.20;;
45842;SDS011;31563;51.744;8.252;2024-02-23T00:56:54;0.93;;;0.28;;
45842;SDS011;31563;51.744;8.252;2024-02-23T00:59:23;2.85;;;0.20;;
45842;SDS011;31563;51.744;8.252;2024-02-23T01:01:51;1.13;;;0.17;;
45842;SDS011;31563;51.744;8.252;2024-02-23T01:04:20;0.10;;;0.10;;
45842;SDS011;31563;51.744;8.252;2024-02-23T01:06:48;1.08;;;0.20;;
45842;SDS011;31563;51.744;8.252;2024-02-23T01:09:16;1.35;;;0.30;;
45842;SDS011;31563;51.744;8.252;2024-02-23T01:11:47;0.70;;;0.17;;
45842;SDS011;31563;51.744;8.252;2024-02-23T01:14:15;1.25;;;0.20;;
45842;SDS011;31563;51.744;8.252;2024-02-23T01:16:43;1.50;;;0.20;;
45842;SDS011;31563;51.744;8.252;2024-02-23T01:19:11;0.30;;;0.20;;
45842;SDS011;31563;51.744;8.252;2024-02-23T01:21:41;0.45;;;0.25;;
45842;SDS011;31563;51.744;8.252;2024-02-23T01:24:09;0.40;;;0.20;;
45842;SDS011;31563;51.744;8.252;2024-02-23T01:26:37;1.25;;;0.30;;
45842;SDS011;31563;51.744;8.252;2024-02-23T01:29:08;0.38;;;0.20;;
45842;SDS011;31563;51.744;8.252;2024-02-23T01:31:36;0.80;;;0.20;;
45842;SDS011;31563;51.744;8.252;2024-02-23T01:34:04;0.47;;;0.20;;
45842;SDS011;31563;51.744;8.252;2024-02-23T01:36:32;0.45;;;0.20;;
45842;SDS011;31563;51.744;8.252;2024-02-23T01:39:02;0.82;;;0.20;;
45842;SDS011;31563;51.744;8.252;2024-02-23T01:41:30;0.40;;;0.15;;
45842;SDS011;31563;51.744;8.252;2024-02-23T01:43:58;0.70;;;0.20;;
45842;SDS011;31563;51.744;8.252;2024-02-23T01:46:27;0.65;;;0.20;;
45842;SDS011;31563;51.744;8.252;2024-02-23T01:48:55;0.38;;;0.10;;
45842;SDS011;31563;51.744;8.252;2024-02-23T01:51:24;0.50;;;0.20;;
45842;SDS011;31563;51.744;8.252;2024-02-23T01:53:52;1.33;;;0.52;;
45842;SDS011;31563;51.744;8.252;2024-02-23T01:56:21;0.70;;;0.20;;
45842;SDS011;31563;51.744;8.252;2024-02-23T01:58:50;0.30;;;0.20;;
45842;SDS011;31563;51.744;8.252;2024-02-23T02:01:19;0.75;;;0.20;;
45842;SDS011;31563;51.744;8.252;2024-02-23T02:03:47;0.35;;;0.17;;
45842;SDS011;31563;51.744;8.252;2024-02-23T02:06:15;0.10;;;0.10;;
45842;SDS011;31563;51.744;8.252;2024-02-23T02:08:43;0.20;;;0.20;;
45842;SDS011;31563;51.744;8.252;2024-02-23T02:11:13;0.73;;;0.20;;
45842;SDS011;31563;51.744;8.252;2024-02-23T02:13:42;0.73;;;0.20;;
45842;SDS011;31563;51.744;8.252;2024-02-23T02:16:11;0.80;;;0.20;;
45842;SDS011;31563;51.744;8.252;2024-02-23T02:18:39;1.17;;;0.30;;
45842;SDS011;31563;51.744;8.252;2024-02-23T02:21:07;0.32;;;0.10;;
45842;SDS011;31563;51.744;8.252;2024-02-23T02:23:35;0.43;;;0.20;;
45842;SDS011;31563;51.744;8.252;2024-02-23T02:26:04;0.75;;;0.20;;
45842;SDS011;31563;51.744;8.252;2024-02-23T02:28:32;0.15;;;0.10;;
45842;SDS011;31563;51.744;8.252;2024-02-23T02:31:02;0.20;;;0.10;;
45842;SDS011;31563;51.744;8.252;2024-02-23T02:33:30;0.45;;;0.10;;
45842;SDS011;31563;51.744;8.252;2024-02-23T02:35:58;0.55;;;0.20;;
45842;SDS011;31563;51.744;8.252;2024-02-23T02:38:26;0.50;;;0.20;;
45842;SDS011;31563;51.744;8.252;2024-02-23T02:40:55;0.55;;;0.20;;
45842;SDS011;31563;51.744;8.252;2024-02-23T02:43:23;0.30;;;0.10;;
45842;SDS011;31563;51.744;8.252;2024-02-23T02:45:52;0.32;;;0.20;;
45842;SDS011;31563;51.744;8.252;2024-02-23T02:48:21;0.55;;;0.17;;
45842;SDS011;31563;51.744;8.252;2024-02-23T02:50:49;0.85;;;0.25;;
45842;SDS011;31563;51.744;8.252;2024-02-23T02:53:19;0.28;;;0.10;;
45842;SDS011;31563;51.744;8.252;2024-02-23T02:55:48;0.80;;;0.20;;
45842;SDS011;31563;51.744;8.252;2024-02-23T02:58:16;0.60;;;0.20;;
45842;SDS011;31563;51.744;8.252;2024-02-23T03:00:44;0.35;;;0.20;;
45842;SDS011;31563;51.744;8.252;2024-02-23T03:03:12;0.30;;;0.10;;
45842;SDS011;31563;51.744;8.252;2024-02-23T03:05:41;0.50;;;0.20;;
45842;SDS011;31563;51.744;8.252;2024-02-23T03:08:09;0.55;;;0.20;;
45842;SDS011;31563;51.744;8.252;2024-02-23T03:10:37;0.20;;;0.10;;
45842;SDS011;31563;51.744;8.252;2024-02-23T03:13:05;0.15;;;0.10;;
45842;SDS011;31563;51.744;8.252;2024-02-23T03:15:34;0.50;;;0.20;;
45842;SDS011;31563;51.744;8.252;2024-02-23T03:18:02;0.75;;;0.10;;
45842;SDS011;31563;51.744;8.252;2024-02-23T03:20:30;0.73;;;0.20;;
45842;SDS011;31563;51.744;8.252;2024-02-23T03:23:00;0.20;;;0.10;;
45842;SDS011;31563;51.744;8.252;2024-02-23T03:25:29;0.45;;;0.15;;
45842;SDS011;31563;51.744;8.252;2024-02-23T03:27:58;0.30;;;0.20;;
45842;SDS011;31563;51.744;8.252;2024-02-23T03:30:26;0.25;;;0.13;;
45842;SDS011;31563;51.744;8.252;2024-02-23T03:32:54;0.40;;;0.20;;
45842;SDS011;31563;51.744;8.252;2024-02-23T03:35:22;0.10;;;0.10;;
45842;SDS011;31563;51.744;8.252;2024-02-23T03:37:50;0.32;;;0.13;;
45842;SDS011;31563;51.744;8.252;2024-02-23T03:40:20;0.75;;;0.35;;
45842;SDS011;31563;51.744;8.252;2024-02-23T03:42:48;2.33;;;0.20;;
45842;SDS011;31563;51.744;8.252;2024-02-23T03:45:16;0.30;;;0.10;;
45842;SDS011;31563;51.744;8.252;2024-02-23T03:47:44;0.85;;;0.13;;
45842;SDS011;31563;51.744;8.252;2024-02-23T03:50:12;0.68;;;0.20;;
45842;SDS011;31563;51.744;8.252;2024-02-23T03:52:40;0.70;;;0.10;;
45842;SDS011;31563;51.744;8.252;2024-02-23T03:55:08;1.27;;;0.20;;
45842;SDS011;31563;51.744;8.252;2024-02-23T03:57:38;0.98;;;0.38;;
45842;SDS011;31563;51.744;8.252;2024-02-23T04:00:07;0.90;;;0.20;;
45842;SDS011;31563;51.744;8.252;2024-02-23T04:02:36;0.25;;;0.10;;
45842;SDS011;31563;51.744;8.252;2024-02-23T04:05:06;0.35;;;0.20;;
45842;SDS011;31563;51.744;8.252;2024-02-23T04:07:35;0.43;;;0.20;;
45842;SDS011;31563;51.744;8.252;2024-02-23T04:10:03;0.85;;;0.20;;
45842;SDS011;31563;51.744;8.252;2024-02-23T04:12:31;0.88;;;0.22;;
45842;SDS011;31563;51.744;8.252;2024-02-23T04:15:01;1.00;;;0.40;;
45842;SDS011;31563;51.744;8.252;2024-02-23T04:17:29;0.70;;;0.10;;
45842;SDS011;31563;51.744;8.252;2024-02-23T04:19:57;0.93;;;0.35;;
45842;SDS011;31563;51.744;8.252;2024-02-23T04:22:27;0.68;;;0.40;;
45842;SDS011;31563;51.744;8.252;2024-02-23T04:24:55;1.15;;;0.30;;
45842;SDS011;31563;51.744;8.252;2024-02-23T04:27:23;0.47;;;0.30;;
45842;SDS011;31563;51.744;8.252;2024-02-23T04:29:52;0.95;;;0.30;;
45842;SDS011;31563;51.744;8.252;2024-02-23T04:32:21;1.17;;;0.35;;
45842;SDS011;31563;51.744;8.252;2024-02-23T04:34:49;0.80;;;0.20;;
45842;SDS011;31563;51.744;8.252;2024-02-23T04:37:18;2.10;;;0.30;;
45842;SDS011;31563;51.744;8.252;2024-02-23T04:39:46;1.35;;;0.30;;
45842;SDS011;31563;51.744;8.252;2024-02-23T04:42:13;1.30;;;0.20;;
45842;SDS011;31563;51.744;8.252;2024-02-23T04:44:41;3.40;;;0.60;;
45842;SDS011;31563;51.744;8.252;2024-02-23T04:47:10;3.92;;;0.50;;
45842;SDS011;31563;51.744;8.252;2024-02-23T04:49:39;1.95;;;0.43;;
45842;SDS011;31563;51.744;8.252;2024-02-23T04:52:07;0.82;;;0.22;;
45842;SDS011;31563;51.744;8.252;2024-02-23T04:54:35;3.03;;;0.40;;
45842;SDS011;31563;51.744;8.252;2024-02-23T04:57:03;1.40;;;0.35;;
45842;SDS011;31563;51.744;8.252;2024-02-23T04:59:31;1.98;;;0.50;;
45842;SDS011;31563;51.744;8.252;2024-02-23T05:01:59;1.15;;;0.30;;
45842;SDS011;31563;51.744;8.252;2024-02-23T05:04:27;1.10;;;0.45;;
45842;SDS011;31563;51.744;8.252;2024-02-23T05:06:57;1.25;;;0.47;;
45842;SDS011;31563;51.744;8.252;2024-02-23T05:09:25;1.63;;;0.40;;
45842;SDS011;31563;51.744;8.252;2024-02-23T05:11:53;1.88;;;0.30;;
45842;SDS011;31563;51.744;8.252;2024-02-23T05:14:21;0.77;;;0.22;;
45842;SDS011;31563;51.744;8.252;2024-02-23T05:16:49;0.60;;;0.30;;
45842;SDS011;31563;51.744;8.252;2024-02-23T05:19:18;1.10;;;0.30;;
45842;SDS011;31563;51.744;8.252;2024-02-23T05:21:46;1.45;;;0.30;;
45842;SDS011;31563;51.744;8.252;2024-02-23T05:24:15;0.50;;;0.20;;
45842;SDS011;31563;51.744;8.252;2024-02-23T05:26:43;1.13;;;0.20;;
45842;SDS011;31563;51.744;8.252;2024-02-23T05:29:12;1.05;;;0.20;;
45842;SDS011;31563;51.744;8.252;2024-02-23T05:31:44;1.23;;;0.20;;
45842;SDS011;31563;51.744;8.252;2024-02-23T05:34:14;1.15;;;0.30;;
45842;SDS011;31563;51.744;8.252;2024-02-23T05:36:42;2.08;;;0.30;;
45842;SDS011;31563;51.744;8.252;2024-02-23T05:39:12;1.15;;;0.25;;
45842;SDS011;31563;51.744;8.252;2024-02-23T05:41:43;1.48;;;0.38;;
45842;SDS011;31563;51.744;8.252;2024-02-23T05:44:11;0.52;;;0.20;;
45842;SDS011;31563;51.744;8.252;2024-02-23T05:46:42;2.15;;;0.73;;
45842;SDS011;31563;51.744;8.252;2024-02-23T05:51:38;1.58;;;0.40;;
45842;SDS011;31563;51.744;8.252;2024-02-23T05:54:07;0.82;;;0.20;;
45842;SDS011;31563;51.744;8.252;2024-02-23T05:56:35;2.37;;;0.40;;
45842;SDS011;31563;51.744;8.252;2024-02-23T05:59:06;4.10;;;0.88;;
45842;SDS011;31563;51.744;8.252;2024-02-23T06:01:35;1.58;;;0.45;;
45842;SDS011;31563;51.744;8.252;2024-02-23T06:04:03;3.50;;;0.57;;
45842;SDS011;31563;51.744;8.252;2024-02-23T06:06:32;2.42;;;0.50;;
45842;SDS011;31563;51.744;8.252;2024-02-23T06:09:00;2.78;;;0.60;;
45842;SDS011;31563;51.744;8.252;2024-02-23T06:11:29;2.78;;;0.70;;
45842;SDS011;31563;51.744;8.252;2024-02-23T06:13:57;3.08;;;0.47;;
45842;SDS011;31563;51.744;8.252;2024-02-23T06:16:27;2.42;;;0.45;;
45842;SDS011;31563;51.744;8.252;2024-02-23T06:18:55;2.67;;;0.70;;
45842;SDS011;31563;51.744;8.252;2024-02-23T06:21:24;2.15;;;0.50;;
45842;SDS011;31563;51.744;8.252;2024-02-23T06:23:52;2.83;;;0.50;;
45842;SDS011;31563;51.744;8.252;2024-02-23T06:26:20;1.88;;;0.63;;
45842;SDS011;31563;51.744;8.252;2024-02-23T06:28:49;2.35;;;0.40;;
45842;SDS011;31563;51.744;8.252;2024-02-23T06:31:17;3.20;;;0.77;;
45842;SDS011;31563;51.744;8.252;2024-02-23T06:33:46;1.90;;;0.40;;
45842;SDS011;31563;51.744;8.252;2024-02-23T06:36:16;2.35;;;0.30;;
45842;SDS011;31563;51.744;8.252;2024-02-23T06:38:44;3.40;;;0.80;;
45842;SDS011;31563;51.744;8.252;2024-02-23T06:41:12;3.83;;;0.68;;
45842;SDS011;31563;51.744;8.252;2024-02-23T06:43:41;2.65;;;0.40;;
45842;SDS011;31563;51.744;8.252;2024-02-23T06:46:09;3.03;;;0.40;;
45842;SDS011;31563;51.744;8.252;2024-02-23T06:48:37;2.05;;;0.60;;
45842;SDS011;31563;51.744;8.252;2024-02-23T06:51:07;1.88;;;0.40;;
45842;SDS011;31563;51.744;8.252;2024-02-23T06:53:36;3.42;;;0.50;;
45842;SDS011;31563;51.744;8.252;2024-02-23T06:56:05;2.80;;;0.40;;
45842;SDS011;31563;51.744;8.252;2024-02-23T06:58:33;6.57;;;0.50;;
45842;SDS011;31563;51.744;8.252;2024-02-23T07:01:02;2.20;;;0.30;;
45842;SDS011;31563;51.744;8.252;2024-02-23T07:03:32;2.42;;;0.60;;
45842;SDS011;31563;51.744;8.252;2024-02-23T07:06:01;1.50;;;0.30;;
45842;SDS011;31563;51.744;8.252;2024-02-23T07:08:31;1.95;;;0.50;;
45842;SDS011;31563;51.744;8.252;2024-02-23T07:10:59;3.30;;;0.63;;
45842;SDS011;31563;51.744;8.252;2024-02-23T07:13:28;1.75;;;0.40;;
45842;SDS011;31563;51.744;8.252;2024-02-23T07:15:56;1.45;;;0.47;;
45842;SDS011;31563;51.744;8.252;2024-02-23T07:18:24;2.55;;;0.47;;
45842;SDS011;31563;51.744;8.252;2024-02-23T07:20:52;2.28;;;0.40;;
45842;SDS011;31563;51.744;8.252;2024-02-23T07:23:20;2.80;;;0.50;;
45842;SDS011;31563;51.744;8.252;2024-02-23T07:25:50;2.47;;;0.45;;
45842;SDS011;31563;51.744;8.252;2024-02-23T07:28:19;2.38;;;0.75;;
45842;SDS011;31563;51.744;8.252;2024-02-23T07:30:49;4.40;;;0.73;;
45842;SDS011;31563;51.744;8.252;2024-02-23T07:33:18;4.65;;;1.20;;
45842;SDS011;31563;51.744;8.252;2024-02-23T07:35:47;1.58;;;0.65;;
45842;SDS011;31563;51.744;8.252;2024-02-23T07:38:15;1.67;;;0.63;;
45842;SDS011;31563;51.744;8.252;2024-02-23T07:40:44;1.77;;;0.60;;
45842;SDS011;31563;51.744;8.252;2024-02-23T07:43:14;2.28;;;0.80;;
45842;SDS011;31563;51.744;8.252;2024-02-23T07:45:42;2.15;;;0.47;;
45842;SDS011;31563;51.744;8.252;2024-02-23T07:48:10;2.20;;;0.68;;
45842;SDS011;31563;51.744;8.252;2024-02-23T07:50:39;2.53;;;0.30;;
45842;SDS011;31563;51.744;8.252;2024-02-23T07:53:07;1.77;;;0.50;;
45842;SDS011;31563;51.744;8.252;2024-02-23T07:55:36;2.17;;;0.45;;
45842;SDS011;31563;51.744;8.252;2024-02-23T07:58:04;2.30;;;0.60;;
45842;SDS011;31563;51.744;8.252;2024-02-23T08:00:34;2.78;;;0.70;;
45842;SDS011;31563;51.744;8.252;2024-02-23T08:03:05;1.85;;;0.57;;
45842;SDS011;31563;51.744;8.252;2024-02-23T08:05:34;2.13;;;0.47;;
45842;SDS011;31563;51.744;8.252;2024-02-23T08:08:02;1.05;;;0.30;;
45842;SDS011;31563;51.744;8.252;2024-02-23T08:10:31;1.58;;;0.57;;
45842;SDS011;31563;51.744;8.252;2024-02-23T08:12:59;2.63;;;0.60;;
45842;SDS011;31563;51.744;8.252;2024-02-23T08:15:27;1.40;;;0.40;;
45842;SDS011;31563;51.744;8.252;2024-02-23T08:17:57;1.55;;;0.50;;
45842;SDS011;31563;51.744;8.252;2024-02-23T08:20:25;2.05;;;0.45;;
45842;SDS011;31563;51.744;8.252;2024-02-23T08:22:53;1.48;;;0.40;;
45842;SDS011;31563;51.744;8.252;2024-02-23T08:25:21;1.70;;;0.63;;
45842;SDS011;31563;51.744;8.252;2024-02-23T08:27:50;1.67;;;0.32;;
45842;SDS011;31563;51.744;8.252;2024-02-23T08:30:18;2.45;;;0.50;;
45842;SDS011;31563;51.744;8.252;2024-02-23T08:32:46;2.45;;;0.47;;
45842;SDS011;31563;51.744;8.252;2024-02-23T08:35:16;1.70;;;0.57;;
45842;SDS011;31563;51.744;8.252;2024-02-23T08:40:13;2.67;;;0.60;;
45842;SDS011;31563;51.744;8.252;2024-02-23T08:42:41;2.15;;;0.70;;
45842;SDS011;31563;51.744;8.252;2024-02-23T08:45:09;1.33;;;0.68;;
45842;SDS011;31563;51.744;8.252;2024-02-23T08:47:39;2.22;;;0.50;;
45842;SDS011;31563;51.744;8.252;2024-02-23T08:52:38;2.55;;;0.70;;
45842;SDS011;31563;51.744;8.252;2024-02-23T08:55:06;1.63;;;0.52;;
45842;SDS011;31563;51.744;8.252;2024-02-23T08:57:35;1.70;;;0.60;;
45842;SDS011;31563;51.744;8.252;2024-02-23T09:00:03;3.25;;;0.90;;
45842;SDS011;31563;51.744;8.252;2024-02-23T09:02:33;3.20;;;0.57;;
45842;SDS011;31563;51.744;8.252;2024-02-23T09:05:04;1.85;;;0.40;;
45842;SDS011;31563;51.744;8.252;2024-02-23T09:07:33;2.47;;;0.43;;
45842;SDS011;31563;51.744;8.252;2024-02-23T09:10:04;2.83;;;0.73;;
45842;SDS011;31563;51.744;8.252;2024-02-23T09:12:32;2.20;;;0.60;;
45842;SDS011;31563;51.744;8.252;2024-02-23T09:15:00;5.68;;;0.55;;
45842;SDS011;31563;51.744;8.252;2024-02-23T09:17:29;3.10;;;0.50;;
45842;SDS011;31563;51.744;8.252;2024-02-23T09:19:57;1.33;;;0.50;;
45842;SDS011;31563;51.744;8.252;2024-02-23T09:22:26;2.67;;;0.43;;
45842;SDS011;31563;51.744;8.252;2024-02-23T09:24:55;3.70;;;0.60;;
45842;SDS011;31563;51.744;8.252;2024-02-23T09:27:25;1.45;;;0.57;;
45842;SDS011;31563;51.744;8.252;2024-02-23T09:29:53;2.25;;;0.43;;
45842;SDS011;31563;51.744;8.252;2024-02-23T09:32:21;2.75;;;0.60;;
45842;SDS011;31563;51.744;8.252;2024-02-23T09:34:49;1.98;;;0.57;;
45842;SDS011;31563;51.744;8.252;2024-02-23T09:37:17;2.08;;;0.43;;
45842;SDS011;31563;51.744;8.252;2024-02-23T09:39:45;1.77;;;0.50;;
45842;SDS011;31563;51.744;8.252;2024-02-23T09:42:13;3.22;;;0.50;;
45842;SDS011;31563;51.744;8.252;2024-02-23T09:44:45;1.77;;;0.45;;
45842;SDS011;31563;51.744;8.252;2024-02-23T09:47:17;3.65;;;0.40;;
45842;SDS011;31563;51.744;8.252;2024-02-23T09:49:45;2.00;;;0.50;;
45842;SDS011;31563;51.744;8.252;2024-02-23T09:52:17;2.10;;;0.65;;
45842;SDS011;31563;51.744;8.252;2024-02-23T09:54:47;3.42;;;0.52;;
45842;SDS011;31563;51.744;8.252;2024-02-23T09:57:16;2.22;;;0.50;;
45842;SDS011;31563;51.744;8.252;2024-02-23T09:59:46;2.25;;;0.50;;
45842;SDS011;31563;51.744;8.252;2024-02-23T10:02:16;1.50;;;0.45;;
45842;SDS011;31563;51.744;8.252;2024-02-23T10:04:44;3.25;;;0.40;;
45842;SDS011;31563;51.744;8.252;2024-02-23T10:07:15;1.25;;;0.30;;
45842;SDS011;31563;51.744;8.252;2024-02-23T10:09:44;2.78;;;0.40;;
45842;SDS011;31563;51.744;8.252;2024-02-23T10:12:12;2.38;;;0.38;;
45842;SDS011;31563;51.744;8.252;2024-02-23T10:14:41;2.08;;;0.40;;
45842;SDS011;31563;51.744;8.252;2024-02-23T10:17:10;2.42;;;0.40;;
45842;SDS011;31563;51.744;8.252;2024-02-23T10:19:39;2.40;;;0.50;;
45842;SDS011;31563;51.744;8.252;2024-02-23T10:22:07;3.78;;;0.40;;
45842;SDS011;31563;51.744;8.252;2024-02-23T10:24:36;2.42;;;0.80;;
45842;SDS011;31563;51.744;8.252;2024-02-23T10:27:04;0.63;;;0.28;;
45842;SDS011;31563;51.744;8.252;2024-02-23T10:29:32;3.63;;;0.70;;
45842;SDS011;31563;51.744;8.252;2024-02-23T10:32:00;3.17;;;0.40;;
45842;SDS011;31563;51.744;8.252;2024-02-23T10:34:31;2.83;;;0.77;;
45842;SDS011;31563;51.744;8.252;2024-02-23T10:37:02;1.83;;;0.80;;
45842;SDS011;31563;51.744;8.252;2024-02-23T10:39:33;1.90;;;0.40;;
45842;SDS011;31563;51.744;8.252;2024-02-23T10:42:04;3.63;;;0.50;;
45842;SDS011;31563;51.744;8.252;2024-02-23T10:44:37;1.90;;;0.30;;
45842;SDS011;31563;51.744;8.252;2024-02-23T10:47:06;2.13;;;0.40;;
45842;SDS011;31563;51.744;8.252;2024-02-23T10:49:36;1.85;;;0.70;;
45842;SDS011;31563;51.744;8.252;2024-02-23T10:52:06;1.33;;;0.50;;
45842;SDS011;31563;51.744;8.252;2024-02-23T10:54:38;2.90;;;0.73;;
45842;SDS011;31563;51.744;8.252;2024-02-23T10:57:07;1.63;;;0.40;;
45842;SDS011;31563;51.744;8.252;2024-02-23T10:59:35;1.52;;;0.40;;
45842;SDS011;31563;51.744;8.252;2024-02-23T11:02:03;1.35;;;0.38;;
45842;SDS011;31563;51.744;8.252;2024-02-23T11:04:33;2.13;;;0.55;;
45842;SDS011;31563;51.744;8.252;2024-02-23T11:07:04;2.05;;;0.32;;
45842;SDS011;31563;51.744;8.252;2024-02-23T11:09:41;4.15;;;0.40;;
45842;SDS011;31563;51.744;8.252;2024-02-23T11:12:09;2.03;;;0.47;;
45842;SDS011;31563;51.744;8.252;2024-02-23T11:14:37;3.78;;;0.63;;
45842;SDS011;31563;51.744;8.252;2024-02-23T11:17:06;1.77;;;0.53;;
45842;SDS011;31563;51.744;8.252;2024-02-23T11:19:45;2.40;;;0.50;;
45842;SDS011;31563;51.744;8.252;2024-02-23T11:22:20;1.33;;;0.30;;
45842;SDS011;31563;51.744;8.252;2024-02-23T11:24:59;1.92;;;0.63;;
45842;SDS011;31563;51.744;8.252;2024-02-23T11:27:30;2.08;;;0.60;;
45842;SDS011;31563;51.744;8.252;2024-02-23T11:29:59;1.55;;;0.47;;
45842;SDS011;31563;51.744;8.252;2024-02-23T11:32:35;1.30;;;0.50;;
45842;SDS011;31563;51.744;8.252;2024-02-23T11:35:06;5.10;;;0.52;;
45842;SDS011;31563;51.744;8.252;2024-02-23T11:37:46;2.60;;;0.52;;
45842;SDS011;31563;51.744;8.252;2024-02-23T11:40:17;2.40;;;0.60;;
45842;SDS011;31563;51.744;8.252;2024-02-23T11:45:13;2.88;;;0.40;;
45842;SDS011;31563;51.744;8.252;2024-02-23T11:47:41;1.40;;;0.40;;
45842;SDS011;31563;51.744;8.252;2024-02-23T11:50:09;2.60;;;0.52;;
45842;SDS011;31563;51.744;8.252;2024-02-23T11:52:38;3.15;;;0.52;;
45842;SDS011;31563;51.744;8.252;2024-02-23T11:55:08;2.63;;;0.50;;
45842;SDS011;31563;51.744;8.252;2024-02-23T11:57:36;3.15;;;0.40;;
45842;SDS011;31563;51.744;8.252;2024-02-23T12:00:14;2.30;;;0.40;;
45842;SDS011;31563;51.744;8.252;2024-02-23T12:02:43;2.15;;;0.40;;
45842;SDS011;31563;51.744;8.252;2024-02-23T12:07:41;4.25;;;0.40;;
45842;SDS011;31563;51.744;8.252;2024-02-23T12:10:14;0.50;;;0.20;;
45842;SDS011;31563;51.744;8.252;2024-02-23T12:12:42;2.35;;;0.32;;
45842;SDS011;31563;51.744;8.252;2024-02-23T12:15:11;3.42;;;0.45;;
45842;SDS011;31563;51.744;8.252;2024-02-23T12:17:46;1.80;;;0.30;;
45842;SDS011;31563;51.744;8.252;2024-02-23T12:20:14;1.40;;;0.45;;
45842;SDS011;31563;51.744;8.252;2024-02-23T12:22:43;0.98;;;0.22;;
45842;SDS011;31563;51.744;8.252;2024-02-23T12:25:11;1.95;;;0.40;;
45842;SDS011;31563;51.744;8.252;2024-02-23T12:27:43;2.00;;;0.50;;
45842;SDS011;31563;51.744;8.252;2024-02-23T12:30:13;1.35;;;0.30;;
45842;SDS011;31563;51.744;8.252;2024-02-23T12:32:42;1.05;;;0.30;;
45842;SDS011;31563;51.744;8.252;2024-02-23T12:35:10;1.52;;;0.35;;
45842;SDS011;31563;51.744;8.252;2024-02-23T12:37:39;1.58;;;0.63;;
45842;SDS011;31563;51.744;8.252;2024-02-23T12:40:10;3.28;;;0.70;;
45842;SDS011;31563;51.744;8.252;2024-02-23T12:42:39;4.65;;;0.70;;
45842;SDS011;31563;51.744;8.252;2024-02-23T12:45:10;2.57;;;0.37;;
45842;SDS011;31563;51.744;8.252;2024-02-23T12:47:39;2.45;;;0.55;;
45842;SDS011;31563;51.744;8.252;2024-02-23T12:50:07;1.65;;;0.38;;
45842;SDS011;31563;51.744;8.252;2024-02-23T12:52:36;3.33;;;0.65;;
45842;SDS011;31563;51.744;8.252;2024-02-23T12:55:04;3.42;;;0.55;;
45842;SDS011;31563;51.744;8.252;2024-02-23T12:57:33;2.17;;;0.68;;
45842;SDS011;31563;51.744;8.252;2024-02-23T13:00:01;2.70;;;0.50;;
45842;SDS011;31563;51.744;8.252;2024-02-23T13:02:30;1.85;;;0.47;;
45842;SDS011;31563;51.744;8.252;2024-02-23T13:04:59;3.25;;;0.80;;
45842;SDS011;31563;51.744;8.252;2024-02-23T13:07:28;3.80;;;0.85;;
45842;SDS011;31563;51.744;8.252;2024-02-23T13:09:57;1.77;;;0.40;;
45842;SDS011;31563;51.744;8.252;2024-02-23T13:12:25;3.13;;;0.70;;
45842;SDS011;31563;51.744;8.252;2024-02-23T13:14:53;3.35;;;0.60;;
45842;SDS011;31563;51.744;8.252;2024-02-23T13:17:21;2.17;;;0.57;;
45842;SDS011;31563;51.744;8.252;2024-02-23T13:19:51;1.52;;;0.50;;
45842;SDS011;31563;51.744;8.252;2024-02-23T13:22:36;1.30;;;0.50;;
45842;SDS011;31563;51.744;8.252;2024-02-23T13:25:04;1.88;;;0.50;;
45842;SDS011;31563;51.744;8.252;2024-02-23T13:27:33;1.85;;;0.50;;
45842;SDS011;31563;51.744;8.252;2024-02-23T13:30:02;1.88;;;0.65;;
45842;SDS011;31563;51.744;8.252;2024-02-23T13:32:30;3.35;;;0.40;;
45842;SDS011;31563;51.744;8.252;2024-02-23T13:35:00;1.92;;;0.60;;
45842;SDS011;31563;51.744;8.252;2024-02-23T13:37:30;1.05;;;0.40;;
45842;SDS011;31563;51.744;8.252;2024-02-23T13:39:59;2.13;;;0.47;;
45842;SDS011;31563;51.744;8.252;2024-02-23T13:42:28;2.00;;;0.32;;
45842;SDS011;31563;51.744;8.252;2024-02-23T13:44:56;3.67;;;0.60;;
45842;SDS011;31563;51.744;8.252;2024-02-23T13:47:26;2.50;;;0.50;;
45842;SDS011;31563;51.744;8.252;2024-02-23T13:49:55;1.70;;;0.60;;
45842;SDS011;31563;51.744;8.252;2024-02-23T13:52:24;1.48;;;0.30;;
45842;SDS011;31563;51.744;8.252;2024-02-23T13:57:20;3.60;;;0.82;;
45842;SDS011;31563;51.744;8.252;2024-02-23T13:59:49;2.75;;;0.60;;
45842;SDS011;31563;51.744;8.252;2024-02-23T14:02:23;1.67;;;0.50;;
45842;SDS011;31563;51.744;8.252;2024-02-23T14:04:53;1.80;;;0.70;;
45842;SDS011;31563;51.744;8.252;2024-02-23T14:07:22;3.15;;;0.50;;
45842;SDS011;31563;51.744;8.252;2024-02-23T14:09:52;1.77;;;0.50;;
45842;SDS011;31563;51.744;8.252;2024-02-23T14:12:22;3.40;;;0.65;;
45842;SDS011;31563;51.744;8.252;2024-02-23T14:14:51;1.58;;;0.55;;
45842;SDS011;31563;51.744;8.252;2024-02-23T14:17:19;3.03;;;0.50;;
45842;SDS011;31563;51.744;8.252;2024-02-23T14:19:47;4.55;;;0.60;;
45842;SDS011;31563;51.744;8.252;2024-02-23T14:22:16;2.25;;;0.55;;
45842;SDS011;31563;51.744;8.252;2024-02-23T14:24:46;3.72;;;0.32;;
45842;SDS011;31563;51.744;8.252;2024-02-23T14:27:14;2.88;;;0.50;;
45842;SDS011;31563;51.744;8.252;2024-02-23T14:29:42;2.45;;;0.60;;
45842;SDS011;31563;51.744;8.252;2024-02-23T14:32:11;3.20;;;0.50;;
45842;SDS011;31563;51.744;8.252;2024-02-23T14:34:44;3.15;;;0.70;;
45842;SDS011;31563;51.744;8.252;2024-02-23T14:37:13;2.40;;;0.60;;
45842;SDS011;31563;51.744;8.252;2024-02-23T14:39:41;1.65;;;0.30;;
45842;SDS011;31563;51.744;8.252;2024-02-23T14:42:14;2.15;;;0.40;;
45842;SDS011;31563;51.744;8.252;2024-02-23T14:44:42;1.00;;;0.38;;
45842;SDS011;31563;51.744;8.252;2024-02-23T14:47:10;0.85;;;0.30;;
45842;SDS011;31563;51.744;8.252;2024-02-23T14:49:38;1.08;;;0.40;;
45842;SDS011;31563;51.744;8.252;2024-02-23T14:52:07;1.95;;;0.40;;
45842;SDS011;31563;51.744;8.252;2024-02-23T14:54:35;2.42;;;0.43;;
45842;SDS011;31563;51.744;8.252;2024-02-23T14:57:03;2.63;;;0.50;;
45842;SDS011;31563;51.744;8.252;2024-02-23T14:59:33;3.35;;;0.40;;
45842;SDS011;31563;51.744;8.252;2024-02-23T15:02:02;3.15;;;0.45;;
45842;SDS011;31563;51.744;8.252;2024-02-23T15:04:31;3.55;;;0.30;;
45842;SDS011;31563;51.744;8.252;2024-02-23T15:06:59;3.58;;;0.50;;
45842;SDS011;31563;51.744;8.252;2024-02-23T15:09:27;3.17;;;0.45;;
45842;SDS011;31563;51.744;8.252;2024-02-23T15:11:55;2.78;;;0.50;;
45842;SDS011;31563;51.744;8.252;2024-02-23T15:14:23;4.32;;;0.50;;